createdAt,value
2018-09-14T00:02:06.359Z,6.63
2018-09-14T00:05:30.868Z,7.33
2018-09-14T00:08:55.272Z,7.27
2018-09-14T00:12:19.665Z,6.53
2018-09-14T00:15:44.078Z,6.07
2018-09-14T00:19:08.472Z,6.77
2018-09-14T00:22:32.861Z,7.57
2018-09-14T00:25:57.259Z,7.70
2018-09-14T00:29:21.737Z,7.73
2018-09-14T00:32:46.168Z,7.97
2018-09-14T00:36:10.577Z,7.17
2018-09-14T00:39:35.010Z,6.53
2018-09-14T00:42:59.444Z,7.80
2018-09-14T00:46:23.897Z,6.27
2018-09-14T00:49:48.299Z,7.70
2018-09-14T00:53:12.725Z,6.93
2018-09-14T00:56:37.166Z,7.30
2018-09-14T01:00:01.574Z,8.27
2018-09-14T01:03:26.083Z,6.80
2018-09-14T01:06:50.566Z,7.23
2018-09-14T01:10:14.971Z,7.97
2018-09-14T01:13:39.395Z,7.33
2018-09-14T01:17:03.942Z,6.70
2018-09-14T01:20:28.363Z,7.50
2018-09-14T01:23:52.784Z,7.70
2018-09-14T01:27:17.228Z,7.27
2018-09-14T01:30:41.645Z,7.20
2018-09-14T01:34:06.162Z,7.93
2018-09-14T01:37:30.574Z,7.60
2018-09-14T01:40:55.022Z,8.93
2018-09-14T01:44:19.414Z,7.70
2018-09-14T01:47:43.857Z,8.23
2018-09-14T01:51:08.304Z,8.70
2018-09-14T01:54:32.717Z,8.63
2018-09-14T01:57:57.641Z,8.87
2018-09-14T02:01:22.143Z,8.30
2018-09-14T02:04:46.600Z,7.67
2018-09-14T02:08:11.011Z,7.87
2018-09-14T02:11:35.387Z,8.53
2018-09-14T02:14:59.825Z,8.40
2018-09-14T02:18:24.233Z,8.63
2018-09-14T02:21:48.651Z,9.03
2018-09-14T02:25:13.253Z,8.97
2018-09-14T02:28:37.642Z,8.03
2018-09-14T02:32:02.102Z,8.43
2018-09-14T02:35:26.514Z,9.93
2018-09-14T02:38:50.937Z,9.23
2018-09-14T02:42:15.361Z,9.03
2018-09-14T02:45:39.804Z,8.80
2018-09-14T02:49:04.210Z,9.13
2018-09-14T02:52:28.638Z,8.00
2018-09-14T02:55:53.107Z,8.47
2018-09-14T02:59:17.580Z,8.13
2018-09-14T03:02:41.981Z,8.60
2018-09-14T03:06:06.518Z,8.90
2018-09-14T03:09:30.953Z,8.60
2018-09-14T03:12:55.361Z,7.53
2018-09-14T03:16:19.756Z,8.23
2018-09-14T03:19:44.158Z,7.90
2018-09-14T03:23:08.587Z,8.13
2018-09-14T03:26:33.012Z,7.80
2018-09-14T03:29:57.439Z,8.63
2018-09-14T03:33:21.902Z,9.30
2018-09-14T03:36:46.322Z,8.53
2018-09-14T03:40:10.759Z,8.50
2018-09-14T03:43:41.513Z,8.93
2018-09-14T03:47:05.978Z,9.73
2018-09-14T03:50:30.390Z,9.67
2018-09-14T03:53:54.804Z,10.70
2018-09-14T03:57:19.462Z,10.40
2018-09-14T04:00:43.842Z,9.10
2018-09-14T04:04:08.394Z,10.80
2018-09-14T04:07:32.836Z,10.00
2018-09-14T04:10:57.282Z,10.70
2018-09-14T04:14:21.688Z,10.63
2018-09-14T04:17:46.124Z,9.43
2018-09-14T04:21:11.053Z,9.47
2018-09-14T04:24:35.529Z,8.97
2018-09-14T04:28:00.194Z,10.43
2018-09-14T04:31:24.712Z,9.93
2018-09-14T04:34:49.151Z,9.27
2018-09-14T04:38:13.566Z,9.23
2018-09-14T04:41:37.997Z,9.27
2018-09-14T04:45:03.189Z,10.23
2018-09-14T04:48:27.643Z,10.07
2018-09-14T04:51:52.032Z,9.77
2018-09-14T04:55:16.440Z,10.60
2018-09-14T04:58:40.931Z,11.10
2018-09-14T05:02:05.418Z,10.73
2018-09-14T05:05:29.837Z,11.07
2018-09-14T05:08:54.309Z,10.83
2018-09-14T05:12:18.725Z,9.43
2018-09-14T05:15:43.820Z,9.83
2018-09-14T05:19:08.284Z,11.23
2018-09-14T05:22:32.712Z,10.80
2018-09-14T05:25:57.102Z,10.30
2018-09-14T05:29:21.529Z,11.20
2018-09-14T05:32:45.989Z,11.37
2018-09-14T05:36:10.394Z,11.13
2018-09-14T05:39:34.801Z,11.53
2018-09-14T05:42:59.275Z,11.83
2018-09-14T05:46:23.766Z,11.90
2018-09-14T05:49:48.157Z,11.90
2018-09-14T05:53:12.589Z,11.23
2018-09-14T05:56:37.032Z,12.00
2018-09-14T06:00:01.528Z,12.17
2018-09-14T06:03:25.953Z,12.57
2018-09-14T06:06:50.388Z,12.53
2018-09-14T06:10:14.877Z,13.47
2018-09-14T06:13:39.511Z,14.67
2018-09-14T06:17:03.961Z,16.00
2018-09-14T06:20:29.332Z,14.97
2018-09-14T06:23:53.836Z,16.77
2018-09-14T06:27:18.337Z,16.87
2018-09-14T06:30:42.821Z,16.80
2018-09-14T06:34:07.288Z,16.07
2018-09-14T06:37:31.687Z,17.37
2018-09-14T06:40:56.133Z,18.10
2018-09-14T06:44:20.635Z,16.83
2018-09-14T06:47:45.116Z,17.90
2018-09-14T06:51:09.611Z,19.43
2018-09-14T06:54:34.088Z,18.93
2018-09-14T06:57:58.640Z,20.80
2018-09-14T07:01:23.101Z,20.90
2018-09-14T07:04:47.572Z,22.10
2018-09-14T07:08:11.967Z,21.53
2018-09-14T07:11:36.457Z,22.47
2018-09-14T07:15:00.903Z,22.87
2018-09-14T07:18:25.351Z,23.47
2018-09-14T07:21:50.813Z,24.67
2018-09-14T07:25:15.286Z,27.50
2018-09-14T07:28:39.736Z,28.30
2018-09-14T07:32:04.129Z,26.67
2018-09-14T07:35:28.612Z,28.97
2018-09-14T07:38:53.075Z,26.13
2018-09-14T07:42:17.567Z,26.87
2018-09-14T07:45:42.006Z,26.03
2018-09-14T07:49:06.515Z,27.90
2018-09-14T07:52:30.984Z,29.87
2018-09-14T07:55:55.462Z,29.77
2018-09-14T07:59:19.957Z,30.07
2018-09-14T08:02:44.492Z,33.55
2018-09-14T08:06:08.968Z,30.92
2018-09-14T08:09:33.403Z,31.00
2018-09-14T08:12:57.849Z,35.70
2018-09-14T08:16:22.290Z,34.95
2018-09-14T08:19:46.719Z,35.43
2018-09-14T08:23:11.178Z,34.73
2018-09-14T08:26:35.702Z,32.00
2018-09-14T08:30:00.292Z,32.20
2018-09-14T08:33:24.749Z,28.47
2018-09-14T08:36:49.254Z,28.77
2018-09-14T08:40:13.705Z,26.37
2018-09-14T08:43:38.134Z,24.12
2018-09-14T08:47:02.561Z,24.10
2018-09-14T08:50:26.985Z,24.50
2018-09-14T08:53:51.448Z,22.22
2018-09-14T08:57:15.866Z,22.87
2018-09-14T09:00:40.319Z,21.90
2018-09-14T09:04:04.769Z,22.02
2018-09-14T09:07:29.198Z,22.73
2018-09-14T09:10:53.640Z,22.62
2018-09-14T09:14:18.163Z,21.82
2018-09-14T09:17:49.244Z,21.40
2018-09-14T09:21:13.685Z,21.50
2018-09-14T09:24:38.090Z,21.60
2018-09-14T09:28:02.503Z,20.88
2018-09-14T09:31:26.965Z,22.25
2018-09-14T09:34:51.459Z,24.70
2018-09-14T09:38:15.962Z,20.40
2018-09-14T09:41:41.190Z,18.35
2018-09-14T09:45:05.772Z,17.55
2018-09-14T09:48:30.260Z,14.93
2018-09-14T09:51:54.812Z,19.35
2018-09-14T09:55:19.276Z,17.17
2018-09-14T09:58:43.783Z,13.38
2018-09-14T10:02:33.793Z,14.75
2018-09-14T10:06:03.322Z,14.00
2018-09-14T10:09:27.819Z,11.38
2018-09-14T10:12:52.256Z,12.07
2018-09-14T10:16:16.731Z,9.93
2018-09-14T10:19:41.221Z,13.53
2018-09-14T10:23:05.704Z,9.88
2018-09-14T10:26:30.140Z,9.58
2018-09-14T10:29:54.545Z,9.18
2018-09-14T10:33:18.999Z,11.85
2018-09-14T10:36:43.409Z,9.70
2018-09-14T10:40:07.857Z,8.18
2018-09-14T10:43:32.308Z,9.45
2018-09-14T10:46:56.710Z,10.23
2018-09-14T10:50:21.279Z,9.90
2018-09-14T10:53:45.696Z,7.62
2018-09-14T10:57:10.203Z,8.70
2018-09-14T11:00:35.020Z,8.05
2018-09-14T11:03:59.428Z,8.28
2018-09-14T11:07:23.844Z,9.13
2018-09-14T11:10:48.274Z,10.30
2018-09-14T11:14:13.050Z,9.45
2018-09-14T11:17:37.476Z,10.82
2018-09-14T11:21:01.889Z,9.65
2018-09-14T11:24:26.338Z,9.13
2018-09-14T11:27:50.772Z,7.50
2018-09-14T11:31:15.222Z,9.55
2018-09-14T11:34:39.682Z,8.48
2018-09-14T11:38:04.231Z,9.23
2018-09-14T11:41:28.612Z,7.42
2018-09-14T11:44:53.093Z,8.28
2018-09-14T11:48:17.523Z,7.97
2018-09-14T11:51:41.934Z,6.95
2018-09-14T11:55:06.389Z,7.10
2018-09-14T11:58:30.957Z,7.90
2018-09-14T12:01:55.392Z,6.97
2018-09-14T12:05:19.785Z,7.45
2018-09-14T12:08:44.239Z,7.67
2018-09-14T12:12:08.660Z,7.17
2018-09-14T12:15:33.130Z,5.92
2018-09-14T12:18:57.601Z,9.65
2018-09-14T12:22:22.099Z,8.25
2018-09-14T12:25:46.474Z,7.65
2018-09-14T12:29:10.897Z,7.75
2018-09-14T12:32:35.431Z,9.65
2018-09-14T12:35:59.873Z,10.35
2018-09-14T12:39:24.339Z,8.55
2018-09-14T12:42:48.781Z,9.13
2018-09-14T12:46:13.238Z,7.78
2018-09-14T12:49:37.728Z,8.08
2018-09-14T12:53:02.146Z,9.10
2018-09-14T12:56:26.589Z,8.63
2018-09-14T12:59:51.024Z,8.73
2018-09-14T13:03:15.462Z,6.65
2018-09-14T13:06:39.939Z,6.58
2018-09-14T13:10:04.454Z,8.33
2018-09-14T13:13:28.905Z,6.12
2018-09-14T13:16:53.483Z,7.17
2018-09-14T13:20:17.933Z,7.10
2018-09-14T13:23:42.432Z,6.40
2018-09-14T13:27:06.889Z,6.62
2018-09-14T13:30:31.837Z,6.78
2018-09-14T13:33:56.348Z,7.60
2018-09-14T13:37:21.109Z,6.42
2018-09-14T13:40:45.517Z,6.10
2018-09-14T13:44:09.891Z,7.45
2018-09-14T13:47:34.753Z,5.33
2018-09-14T13:50:59.203Z,6.10
2018-09-14T13:54:23.638Z,6.78
2018-09-14T13:57:48.923Z,7.67
2018-09-14T14:01:13.404Z,6.30
2018-09-14T14:04:37.880Z,5.72
2018-09-14T14:08:02.299Z,5.95
2018-09-14T14:11:26.735Z,6.33
2018-09-14T14:14:51.164Z,5.70
2018-09-14T14:22:27.492Z,5.50
2018-09-14T14:25:51.920Z,4.53
2018-09-14T14:29:16.348Z,4.70
2018-09-14T14:32:40.779Z,4.87
2018-09-14T14:36:05.253Z,4.95
2018-09-14T14:39:29.685Z,5.17
2018-09-14T14:42:54.076Z,4.58
2018-09-14T14:46:18.519Z,4.47
2018-09-14T14:49:42.944Z,5.22
2018-09-14T14:53:07.587Z,6.35
2018-09-14T14:56:32.004Z,6.17
2018-09-14T14:59:56.501Z,5.95
2018-09-14T15:03:20.943Z,6.15
2018-09-14T15:06:45.361Z,5.53
2018-09-14T15:10:09.794Z,5.58
2018-09-14T15:13:34.238Z,7.70
2018-09-14T15:16:58.650Z,5.87
2018-09-14T15:20:23.081Z,6.92
2018-09-14T15:23:47.529Z,5.95
2018-09-14T15:27:11.921Z,5.05
2018-09-14T15:30:36.478Z,5.30
2018-09-14T15:34:00.867Z,4.97
2018-09-14T15:37:25.867Z,5.10
2018-09-14T15:40:50.380Z,7.12
2018-09-14T15:44:14.959Z,5.75
2018-09-14T15:47:39.451Z,5.58
2018-09-14T15:51:04.024Z,5.08
2018-09-14T15:54:28.461Z,5.12
2018-09-14T15:57:53.100Z,5.33
2018-09-14T16:01:17.585Z,4.78
2018-09-14T16:04:42.074Z,5.15
2018-09-14T16:08:06.635Z,5.55
2018-09-14T16:11:31.037Z,4.97
2018-09-14T16:14:55.483Z,5.25
2018-09-14T16:18:19.904Z,5.47
2018-09-14T16:21:44.365Z,4.80
2018-09-14T16:25:09.217Z,4.85
2018-09-14T16:28:33.651Z,6.10
2018-09-14T16:31:58.098Z,4.42
2018-09-14T16:35:22.536Z,3.87
2018-09-14T16:38:46.975Z,4.15
2018-09-14T16:42:11.421Z,4.35
2018-09-14T16:45:35.922Z,5.78
2018-09-14T16:49:00.341Z,4.05
2018-09-14T16:52:24.809Z,4.65
2018-09-14T16:55:55.960Z,4.25
2018-09-14T16:59:20.354Z,3.58
2018-09-14T17:02:44.807Z,3.65
2018-09-14T17:06:09.196Z,3.25
2018-09-14T17:09:33.673Z,2.85
2018-09-14T17:12:58.094Z,2.72
2018-09-14T17:16:29.299Z,2.62
2018-09-14T17:19:53.761Z,2.72
2018-09-14T17:23:17.321Z,3.10
2018-09-14T17:26:41.943Z,2.90
2018-09-14T17:30:06.778Z,3.30
2018-09-14T17:33:31.264Z,3.22
2018-09-14T17:36:55.714Z,3.80
2018-09-14T17:40:20.161Z,3.35
2018-09-14T17:43:44.563Z,3.10
2018-09-14T17:47:09.184Z,2.90
2018-09-14T17:50:33.673Z,2.67
2018-09-14T17:53:58.117Z,2.75
2018-09-14T17:57:22.676Z,2.83
2018-09-14T18:00:47.115Z,2.90
2018-09-14T18:04:11.875Z,3.08
2018-09-14T18:07:36.386Z,2.70
2018-09-14T18:11:01.115Z,3.15
2018-09-14T18:14:27.653Z,3.37
2018-09-14T18:17:52.191Z,2.92
2018-09-14T18:21:16.680Z,3.77
2018-09-14T18:24:41.106Z,3.58
2018-09-14T18:28:06.550Z,2.90
2018-09-14T18:31:31.103Z,3.40
2018-09-14T18:34:56.695Z,3.37
2018-09-14T18:38:21.209Z,3.17
2018-09-14T18:41:45.775Z,3.80
2018-09-14T18:45:10.538Z,3.55
2018-09-14T18:48:35.085Z,3.75
2018-09-14T18:51:59.933Z,4.42
2018-09-14T18:55:24.935Z,3.30
2018-09-14T18:58:49.872Z,3.83
2018-09-14T19:02:16.175Z,4.60
2018-09-14T19:05:41.918Z,4.28
2018-09-14T19:09:11.929Z,5.28
2018-09-14T19:12:37.414Z,4.40
2018-09-14T19:16:02.419Z,4.95
2018-09-14T19:19:27.701Z,4.97
2018-09-14T19:22:53.770Z,5.05
2018-09-14T19:26:19.844Z,5.17
2018-09-14T19:29:45.215Z,5.17
2018-09-14T19:33:10.740Z,6.08
2018-09-14T19:36:35.911Z,6.30
2018-09-14T19:40:00.937Z,4.95
2018-09-14T19:43:26.403Z,5.83
2018-09-14T19:46:52.660Z,6.62
2018-09-14T19:50:18.207Z,6.90
2018-09-14T19:53:44.240Z,6.15
2018-09-14T19:57:09.331Z,7.30
2018-09-14T20:00:34.292Z,6.92
2018-09-14T20:03:59.275Z,6.90
2018-09-14T20:07:24.378Z,6.47
2018-09-14T20:10:50.100Z,7.03
2018-09-14T20:14:15.713Z,7.53
2018-09-14T20:17:41.918Z,6.55
2018-09-14T20:21:06.698Z,6.65
2018-09-14T20:24:31.960Z,6.62
2018-09-14T20:27:57.317Z,7.42
2018-09-14T20:31:22.028Z,7.22
2018-09-14T20:34:47.229Z,6.85
2018-09-14T20:38:12.131Z,7.85
2018-09-14T20:41:37.561Z,9.33
2018-09-14T20:45:03.557Z,7.33
2018-09-14T20:48:29.601Z,8.38
2018-09-14T20:51:54.900Z,8.10
2018-09-14T20:55:20.483Z,8.05
2018-09-14T20:58:45.336Z,8.08
2018-09-14T21:02:09.949Z,8.40
2018-09-14T21:05:34.658Z,7.53
2018-09-14T21:08:59.179Z,8.28
2018-09-14T21:12:23.737Z,6.72
2018-09-14T21:15:48.134Z,7.33
2018-09-14T21:19:12.519Z,7.45
2018-09-14T21:22:38.043Z,5.83
2018-09-14T21:26:02.480Z,5.65
2018-09-14T21:29:26.885Z,5.40
2018-09-14T21:32:51.296Z,5.53
2018-09-14T21:36:15.739Z,6.50
2018-09-14T21:39:40.152Z,6.05
2018-09-14T21:43:04.561Z,5.53
2018-09-14T21:46:28.952Z,5.55
2018-09-14T21:49:53.392Z,5.55
2018-09-14T21:53:17.809Z,6.05
2018-09-14T21:56:42.239Z,5.70
2018-09-14T22:00:12.553Z,6.60
2018-09-14T22:03:36.973Z,5.62
2018-09-14T22:07:01.425Z,5.65
2018-09-14T22:10:25.834Z,6.10
2018-09-14T22:13:51.221Z,6.12
2018-09-14T22:17:15.661Z,5.87
2018-09-14T22:20:40.046Z,5.60
2018-09-14T22:24:04.459Z,5.40
2018-09-14T22:27:28.845Z,5.92
2018-09-14T22:30:53.247Z,6.45
2018-09-14T22:34:17.681Z,6.92
2018-09-14T22:37:42.115Z,6.60
2018-09-14T22:41:06.539Z,7.08
2018-09-14T22:44:31.008Z,6.65
2018-09-14T22:47:55.413Z,7.30
2018-09-14T22:51:19.871Z,5.72
2018-09-14T22:54:44.268Z,6.40
2018-09-14T22:58:08.744Z,6.67
2018-09-14T23:01:33.113Z,6.95
2018-09-14T23:04:57.538Z,6.70
2018-09-14T23:08:21.948Z,6.62
2018-09-14T23:11:46.423Z,5.95
2018-09-14T23:15:10.858Z,6.33
2018-09-14T23:18:35.345Z,6.70
2018-09-14T23:21:59.772Z,7.42
2018-09-14T23:25:24.159Z,6.42
2018-09-14T23:28:48.661Z,5.55
2018-09-14T23:32:13.039Z,6.20
2018-09-14T23:35:37.520Z,5.65
2018-09-14T23:39:01.889Z,5.35
2018-09-14T23:42:26.321Z,6.03
2018-09-14T23:45:50.728Z,5.45
2018-09-14T23:49:15.175Z,5.58
2018-09-14T23:52:39.616Z,5.75
2018-09-14T23:56:04.359Z,6.10
2018-09-14T23:59:28.798Z,5.55
